sensor_id;sensor_type;location;lat;lon;timestamp;P1;durP1;ratioP1;P2;durP2;ratioP2
20076;SDS011;12348;42.710;23.378;2022-12-10T00:02:08;11.87;;;5.30;;
20076;SDS011;12348;42.710;23.378;2022-12-10T00:04:35;17.37;;;5.50;;
20076;SDS011;12348;42.710;23.378;2022-12-10T00:07:02;14.57;;;5.17;;
20076;SDS011;12348;42.710;23.378;2022-12-10T00:09:29;9.17;;;5.03;;
20076;SDS011;12348;42.710;23.378;2022-12-10T00:11:55;14.97;;;5.30;;
20076;SDS011;12348;42.710;23.378;2022-12-10T00:14:23;9.93;;;4.30;;
20076;SDS011;12348;42.710;23.378;2022-12-10T00:16:50;16.77;;;4.70;;
20076;SDS011;12348;42.710;23.378;2022-12-10T00:19:17;11.50;;;5.83;;
20076;SDS011;12348;42.710;23.378;2022-12-10T00:21:44;15.70;;;4.50;;
20076;SDS011;12348;42.710;23.378;2022-12-10T00:24:11;14.50;;;5.40;;
20076;SDS011;12348;42.710;23.378;2022-12-10T00:26:39;16.07;;;7.90;;
20076;SDS011;12348;42.710;23.378;2022-12-10T00:29:07;11.23;;;6.37;;
20076;SDS011;12348;42.710;23.378;2022-12-10T00:31:39;14.83;;;6.80;;
20076;SDS011;12348;42.710;23.378;2022-12-10T00:34:07;15.57;;;4.90;;
20076;SDS011;12348;42.710;23.378;2022-12-10T00:36:37;14.30;;;5.00;;
20076;SDS011;12348;42.710;23.378;2022-12-10T00:39:06;10.60;;;5.23;;
20076;SDS011;12348;42.710;23.378;2022-12-10T00:41:33;9.70;;;4.83;;
20076;SDS011;12348;42.710;23.378;2022-12-10T00:43:59;15.87;;;4.67;;
20076;SDS011;12348;42.710;23.378;2022-12-10T00:46:27;15.50;;;5.43;;
20076;SDS011;12348;42.710;23.378;2022-12-10T00:48:55;12.33;;;5.90;;
20076;SDS011;12348;42.710;23.378;2022-12-10T00:51:22;11.87;;;5.00;;
20076;SDS011;12348;42.710;23.378;2022-12-10T00:53:51;8.67;;;4.50;;
20076;SDS011;12348;42.710;23.378;2022-12-10T00:56:20;6.80;;;4.17;;
20076;SDS011;12348;42.710;23.378;2022-12-10T00:58:48;11.97;;;5.13;;
20076;SDS011;12348;42.710;23.378;2022-12-10T01:01:16;10.43;;;4.10;;
20076;SDS011;12348;42.710;23.378;2022-12-10T01:03:46;7.60;;;4.33;;
20076;SDS011;12348;42.710;23.378;2022-12-10T01:06:17;11.37;;;4.53;;
20076;SDS011;12348;42.710;23.378;2022-12-10T01:08:45;7.87;;;4.90;;
20076;SDS011;12348;42.710;23.378;2022-12-10T01:11:13;15.83;;;5.40;;
20076;SDS011;12348;42.710;23.378;2022-12-10T01:13:41;11.50;;;4.47;;
20076;SDS011;12348;42.710;23.378;2022-12-10T01:16:09;10.10;;;5.13;;
20076;SDS011;12348;42.710;23.378;2022-12-10T01:18:37;10.40;;;4.83;;
20076;SDS011;12348;42.710;23.378;2022-12-10T01:21:05;10.70;;;5.13;;
20076;SDS011;12348;42.710;23.378;2022-12-10T01:23:36;16.30;;;5.17;;
20076;SDS011;12348;42.710;23.378;2022-12-10T01:26:05;8.90;;;5.23;;
20076;SDS011;12348;42.710;23.378;2022-12-10T01:28:34;12.93;;;5.23;;
20076;SDS011;12348;42.710;23.378;2022-12-10T01:31:04;8.93;;;4.73;;
20076;SDS011;12348;42.710;23.378;2022-12-10T01:33:32;13.83;;;6.40;;
20076;SDS011;12348;42.710;23.378;2022-12-10T01:36:01;10.00;;;5.13;;
20076;SDS011;12348;42.710;23.378;2022-12-10T01:38:28;8.93;;;4.83;;
20076;SDS011;12348;42.710;23.378;2022-12-10T01:40:56;9.80;;;4.50;;
20076;SDS011;12348;42.710;23.378;2022-12-10T01:43:23;10.00;;;5.50;;
20076;SDS011;12348;42.710;23.378;2022-12-10T01:45:50;14.47;;;5.53;;
20076;SDS011;12348;42.710;23.378;2022-12-10T01:48:17;10.40;;;4.47;;
20076;SDS011;12348;42.710;23.378;2022-12-10T01:50:44;12.33;;;4.80;;
20076;SDS011;12348;42.710;23.378;2022-12-10T01:53:11;7.63;;;4.70;;
20076;SDS011;12348;42.710;23.378;2022-12-10T01:55:42;9.63;;;4.63;;
20076;SDS011;12348;42.710;23.378;2022-12-10T01:58:15;7.57;;;4.33;;
20076;SDS011;12348;42.710;23.378;2022-12-10T02:00:46;10.57;;;5.70;;
20076;SDS011;12348;42.710;23.378;2022-12-10T02:03:29;7.20;;;4.63;;
20076;SDS011;12348;42.710;23.378;2022-12-10T02:06:05;12.57;;;5.47;;
20076;SDS011;12348;42.710;23.378;2022-12-10T02:08:44;12.53;;;5.13;;
20076;SDS011;12348;42.710;23.378;2022-12-10T02:11:21;10.17;;;5.50;;
20076;SDS011;12348;42.710;23.378;2022-12-10T02:13:55;19.63;;;7.03;;
20076;SDS011;12348;42.710;23.378;2022-12-10T02:16:29;15.27;;;6.60;;
20076;SDS011;12348;42.710;23.378;2022-12-10T02:19:02;13.17;;;6.60;;
20076;SDS011;12348;42.710;23.378;2022-12-10T02:21:38;12.13;;;5.47;;
20076;SDS011;12348;42.710;23.378;2022-12-10T02:24:10;12.70;;;6.10;;
20076;SDS011;12348;42.710;23.378;2022-12-10T02:26:41;18.07;;;7.40;;
20076;SDS011;12348;42.710;23.378;2022-12-10T02:29:14;13.97;;;7.20;;
20076;SDS011;12348;42.710;23.378;2022-12-10T02:31:44;19.13;;;8.37;;
20076;SDS011;12348;42.710;23.378;2022-12-10T02:34:15;15.63;;;8.33;;
20076;SDS011;12348;42.710;23.378;2022-12-10T02:36:44;16.87;;;7.43;;
20076;SDS011;12348;42.710;23.378;2022-12-10T02:39:14;15.03;;;6.97;;
20076;SDS011;12348;42.710;23.378;2022-12-10T02:41:46;13.73;;;7.30;;
20076;SDS011;12348;42.710;23.378;2022-12-10T02:44:17;19.40;;;7.33;;
20076;SDS011;12348;42.710;23.378;2022-12-10T02:46:46;16.87;;;7.77;;
20076;SDS011;12348;42.710;23.378;2022-12-10T02:49:15;22.90;;;8.30;;
20076;SDS011;12348;42.710;23.378;2022-12-10T02:51:43;14.90;;;7.70;;
20076;SDS011;12348;42.710;23.378;2022-12-10T02:57:05;16.57;;;7.90;;
20076;SDS011;12348;42.710;23.378;2022-12-10T02:59:45;13.27;;;6.47;;
20076;SDS011;12348;42.710;23.378;2022-12-10T03:02:19;16.53;;;7.13;;
20076;SDS011;12348;42.710;23.378;2022-12-10T03:04:58;18.00;;;8.77;;
20076;SDS011;12348;42.710;23.378;2022-12-10T03:07:32;12.47;;;6.10;;
20076;SDS011;12348;42.710;23.378;2022-12-10T03:10:03;12.00;;;6.40;;
20076;SDS011;12348;42.710;23.378;2022-12-10T03:12:36;14.97;;;6.40;;
20076;SDS011;12348;42.710;23.378;2022-12-10T03:15:09;13.57;;;6.17;;
20076;SDS011;12348;42.710;23.378;2022-12-10T03:17:37;13.33;;;6.47;;
20076;SDS011;12348;42.710;23.378;2022-12-10T03:20:07;10.00;;;6.07;;
20076;SDS011;12348;42.710;23.378;2022-12-10T03:22:37;10.93;;;6.10;;
20076;SDS011;12348;42.710;23.378;2022-12-10T03:25:06;18.67;;;7.10;;
20076;SDS011;12348;42.710;23.378;2022-12-10T03:27:36;15.00;;;6.93;;
20076;SDS011;12348;42.710;23.378;2022-12-10T03:30:06;15.97;;;6.33;;
20076;SDS011;12348;42.710;23.378;2022-12-10T03:32:35;15.00;;;5.83;;
20076;SDS011;12348;42.710;23.378;2022-12-10T03:35:03;12.13;;;5.47;;
20076;SDS011;12348;42.710;23.378;2022-12-10T03:37:32;7.00;;;4.47;;
20076;SDS011;12348;42.710;23.378;2022-12-10T03:40:00;12.23;;;4.87;;
20076;SDS011;12348;42.710;23.378;2022-12-10T03:42:27;16.23;;;6.87;;
20076;SDS011;12348;42.710;23.378;2022-12-10T03:44:54;11.40;;;4.27;;
20076;SDS011;12348;42.710;23.378;2022-12-10T03:47:21;18.00;;;5.87;;
20076;SDS011;12348;42.710;23.378;2022-12-10T03:49:50;11.97;;;5.53;;
20076;SDS011;12348;42.710;23.378;2022-12-10T03:52:17;11.13;;;5.27;;
20076;SDS011;12348;42.710;23.378;2022-12-10T03:54:44;14.87;;;5.37;;
20076;SDS011;12348;42.710;23.378;2022-12-10T03:57:10;14.50;;;6.67;;
20076;SDS011;12348;42.710;23.378;2022-12-10T03:59:38;12.73;;;6.53;;
20076;SDS011;12348;42.710;23.378;2022-12-10T04:02:04;14.97;;;6.73;;
20076;SDS011;12348;42.710;23.378;2022-12-10T04:04:31;16.50;;;6.60;;
20076;SDS011;12348;42.710;23.378;2022-12-10T04:06:59;14.70;;;7.03;;
20076;SDS011;12348;42.710;23.378;2022-12-10T04:09:26;12.47;;;6.77;;
20076;SDS011;12348;42.710;23.378;2022-12-10T04:11:55;12.90;;;6.10;;
20076;SDS011;12348;42.710;23.378;2022-12-10T04:14:22;12.13;;;6.60;;
20076;SDS011;12348;42.710;23.378;2022-12-10T04:17:07;13.57;;;5.63;;
20076;SDS011;12348;42.710;23.378;2022-12-10T04:19:34;11.00;;;6.13;;
20076;SDS011;12348;42.710;23.378;2022-12-10T04:22:03;9.97;;;5.57;;
20076;SDS011;12348;42.710;23.378;2022-12-10T04:24:47;13.57;;;5.87;;
20076;SDS011;12348;42.710;23.378;2022-12-10T04:27:32;12.30;;;5.60;;
20076;SDS011;12348;42.710;23.378;2022-12-10T04:30:02;7.30;;;4.77;;
20076;SDS011;12348;42.710;23.378;2022-12-10T04:32:30;13.00;;;5.10;;
20076;SDS011;12348;42.710;23.378;2022-12-10T04:34:57;11.53;;;5.03;;
20076;SDS011;12348;42.710;23.378;2022-12-10T04:37:26;10.57;;;5.60;;
20076;SDS011;12348;42.710;23.378;2022-12-10T04:39:54;15.37;;;5.53;;
20076;SDS011;12348;42.710;23.378;2022-12-10T04:42:21;8.73;;;4.53;;
20076;SDS011;12348;42.710;23.378;2022-12-10T04:44:48;8.43;;;4.77;;
20076;SDS011;12348;42.710;23.378;2022-12-10T04:47:15;10.50;;;5.90;;
20076;SDS011;12348;42.710;23.378;2022-12-10T04:49:42;9.83;;;5.73;;
20076;SDS011;12348;42.710;23.378;2022-12-10T04:52:11;10.73;;;5.47;;
20076;SDS011;12348;42.710;23.378;2022-12-10T04:54:40;11.50;;;4.93;;
20076;SDS011;12348;42.710;23.378;2022-12-10T04:57:06;6.37;;;4.10;;
20076;SDS011;12348;42.710;23.378;2022-12-10T04:59:34;10.57;;;4.50;;
20076;SDS011;12348;42.710;23.378;2022-12-10T05:02:02;8.73;;;5.07;;
20076;SDS011;12348;42.710;23.378;2022-12-10T05:04:29;18.67;;;6.77;;
20076;SDS011;12348;42.710;23.378;2022-12-10T05:06:55;8.23;;;5.10;;
20076;SDS011;12348;42.710;23.378;2022-12-10T05:09:22;9.13;;;6.27;;
20076;SDS011;12348;42.710;23.378;2022-12-10T05:11:50;8.97;;;4.93;;
20076;SDS011;12348;42.710;23.378;2022-12-10T05:14:17;10.40;;;6.03;;
20076;SDS011;12348;42.710;23.378;2022-12-10T05:16:43;10.67;;;5.67;;
20076;SDS011;12348;42.710;23.378;2022-12-10T05:19:10;12.53;;;5.03;;
20076;SDS011;12348;42.710;23.378;2022-12-10T05:21:37;10.33;;;5.70;;
20076;SDS011;12348;42.710;23.378;2022-12-10T05:24:22;11.27;;;5.90;;
20076;SDS011;12348;42.710;23.378;2022-12-10T05:26:50;8.73;;;5.10;;
20076;SDS011;12348;42.710;23.378;2022-12-10T05:29:17;10.80;;;5.77;;
20076;SDS011;12348;42.710;23.378;2022-12-10T05:31:44;10.33;;;5.20;;
20076;SDS011;12348;42.710;23.378;2022-12-10T05:34:11;19.03;;;6.10;;
20076;SDS011;12348;42.710;23.378;2022-12-10T05:36:38;15.60;;;7.10;;
20076;SDS011;12348;42.710;23.378;2022-12-10T05:39:05;17.27;;;5.70;;
20076;SDS011;12348;42.710;23.378;2022-12-10T05:41:34;15.80;;;7.03;;
20076;SDS011;12348;42.710;23.378;2022-12-10T05:44:03;18.53;;;7.67;;
20076;SDS011;12348;42.710;23.378;2022-12-10T05:46:31;17.33;;;7.23;;
20076;SDS011;12348;42.710;23.378;2022-12-10T05:48:59;15.90;;;6.33;;
20076;SDS011;12348;42.710;23.378;2022-12-10T05:51:27;13.77;;;6.67;;
20076;SDS011;12348;42.710;23.378;2022-12-10T05:53:56;13.73;;;7.33;;
20076;SDS011;12348;42.710;23.378;2022-12-10T05:56:24;22.53;;;6.93;;
20076;SDS011;12348;42.710;23.378;2022-12-10T05:58:52;17.90;;;6.90;;
20076;SDS011;12348;42.710;23.378;2022-12-10T06:01:22;10.77;;;6.10;;
20076;SDS011;12348;42.710;23.378;2022-12-10T06:03:50;14.77;;;7.03;;
20076;SDS011;12348;42.710;23.378;2022-12-10T06:06:19;18.93;;;7.70;;
20076;SDS011;12348;42.710;23.378;2022-12-10T06:08:48;20.37;;;7.57;;
20076;SDS011;12348;42.710;23.378;2022-12-10T06:11:16;15.70;;;6.83;;
20076;SDS011;12348;42.710;23.378;2022-12-10T06:13:43;16.60;;;6.07;;
20076;SDS011;12348;42.710;23.378;2022-12-10T06:16:10;15.30;;;7.17;;
20076;SDS011;12348;42.710;23.378;2022-12-10T06:18:40;10.93;;;6.87;;
20076;SDS011;12348;42.710;23.378;2022-12-10T06:21:08;17.80;;;6.57;;
20076;SDS011;12348;42.710;23.378;2022-12-10T06:23:37;13.97;;;6.93;;
20076;SDS011;12348;42.710;23.378;2022-12-10T06:26:05;13.80;;;5.80;;
20076;SDS011;12348;42.710;23.378;2022-12-10T06:28:33;9.27;;;5.17;;
20076;SDS011;12348;42.710;23.378;2022-12-10T06:31:00;10.33;;;5.33;;
20076;SDS011;12348;42.710;23.378;2022-12-10T06:33:27;10.83;;;6.30;;
20076;SDS011;12348;42.710;23.378;2022-12-10T06:35:55;14.30;;;6.37;;
20076;SDS011;12348;42.710;23.378;2022-12-10T06:38:22;11.77;;;6.20;;
20076;SDS011;12348;42.710;23.378;2022-12-10T06:40:49;10.27;;;5.67;;
20076;SDS011;12348;42.710;23.378;2022-12-10T06:43:16;12.93;;;6.20;;
20076;SDS011;12348;42.710;23.378;2022-12-10T06:45:43;12.60;;;5.23;;
20076;SDS011;12348;42.710;23.378;2022-12-10T06:48:09;12.33;;;5.97;;
20076;SDS011;12348;42.710;23.378;2022-12-10T06:50:36;12.83;;;5.30;;
20076;SDS011;12348;42.710;23.378;2022-12-10T06:53:04;13.13;;;5.57;;
20076;SDS011;12348;42.710;23.378;2022-12-10T06:55:31;14.23;;;6.10;;
20076;SDS011;12348;42.710;23.378;2022-12-10T06:57:58;15.17;;;5.80;;
20076;SDS011;12348;42.710;23.378;2022-12-10T07:00:25;7.00;;;5.27;;
20076;SDS011;12348;42.710;23.378;2022-12-10T07:02:51;19.57;;;6.90;;
20076;SDS011;12348;42.710;23.378;2022-12-10T07:05:18;14.10;;;6.97;;
20076;SDS011;12348;42.710;23.378;2022-12-10T07:07:45;13.83;;;6.63;;
20076;SDS011;12348;42.710;23.378;2022-12-10T07:10:13;18.90;;;7.27;;
20076;SDS011;12348;42.710;23.378;2022-12-10T07:12:41;11.13;;;6.33;;
20076;SDS011;12348;42.710;23.378;2022-12-10T07:15:08;8.83;;;6.10;;
20076;SDS011;12348;42.710;23.378;2022-12-10T07:17:36;14.43;;;7.50;;
20076;SDS011;12348;42.710;23.378;2022-12-10T07:20:03;16.90;;;5.87;;
20076;SDS011;12348;42.710;23.378;2022-12-10T07:22:31;11.97;;;7.50;;
20076;SDS011;12348;42.710;23.378;2022-12-10T07:24:57;12.50;;;7.73;;
20076;SDS011;12348;42.710;23.378;2022-12-10T07:27:26;11.13;;;7.33;;
20076;SDS011;12348;42.710;23.378;2022-12-10T07:29:53;10.87;;;6.37;;
20076;SDS011;12348;42.710;23.378;2022-12-10T07:32:20;14.37;;;6.40;;
20076;SDS011;12348;42.710;23.378;2022-12-10T07:34:46;13.37;;;7.03;;
20076;SDS011;12348;42.710;23.378;2022-12-10T07:37:13;10.20;;;5.93;;
20076;SDS011;12348;42.710;23.378;2022-12-10T07:39:40;15.77;;;6.43;;
20076;SDS011;12348;42.710;23.378;2022-12-10T07:42:08;11.23;;;6.33;;
20076;SDS011;12348;42.710;23.378;2022-12-10T07:44:36;13.33;;;6.20;;
20076;SDS011;12348;42.710;23.378;2022-12-10T07:47:02;9.83;;;6.40;;
20076;SDS011;12348;42.710;23.378;2022-12-10T07:49:30;11.50;;;5.67;;
20076;SDS011;12348;42.710;23.378;2022-12-10T07:51:56;11.40;;;6.57;;
20076;SDS011;12348;42.710;23.378;2022-12-10T07:54:23;10.33;;;6.00;;
20076;SDS011;12348;42.710;23.378;2022-12-10T07:56:50;14.17;;;7.47;;
20076;SDS011;12348;42.710;23.378;2022-12-10T07:59:18;16.93;;;7.33;;
20076;SDS011;12348;42.710;23.378;2022-12-10T08:01:46;14.33;;;6.83;;
20076;SDS011;12348;42.710;23.378;2022-12-10T08:04:14;14.73;;;7.73;;
20076;SDS011;12348;42.710;23.378;2022-12-10T08:06:41;16.97;;;7.87;;
20076;SDS011;12348;42.710;23.378;2022-12-10T08:09:08;13.30;;;7.43;;
20076;SDS011;12348;42.710;23.378;2022-12-10T08:11:36;16.67;;;7.83;;
20076;SDS011;12348;42.710;23.378;2022-12-10T08:14:02;16.57;;;9.63;;
20076;SDS011;12348;42.710;23.378;2022-12-10T08:16:29;13.60;;;8.23;;
20076;SDS011;12348;42.710;23.378;2022-12-10T08:22:11;27.23;;;10.20;;
20076;SDS011;12348;42.710;23.378;2022-12-10T08:24:38;19.30;;;11.50;;
20076;SDS011;12348;42.710;23.378;2022-12-10T08:27:05;17.40;;;10.27;;
20076;SDS011;12348;42.710;23.378;2022-12-10T08:29:31;24.07;;;11.83;;
20076;SDS011;12348;42.710;23.378;2022-12-10T08:31:58;60.10;;;27.30;;
20076;SDS011;12348;42.710;23.378;2022-12-10T08:34:26;43.10;;;21.57;;
20076;SDS011;12348;42.710;23.378;2022-12-10T08:36:52;33.20;;;18.13;;
20076;SDS011;12348;42.710;23.378;2022-12-10T08:39:21;14.20;;;8.63;;
20076;SDS011;12348;42.710;23.378;2022-12-10T08:41:47;19.60;;;8.90;;
20076;SDS011;12348;42.710;23.378;2022-12-10T08:44:14;22.80;;;10.37;;
20076;SDS011;12348;42.710;23.378;2022-12-10T08:46:41;15.13;;;7.70;;
20076;SDS011;12348;42.710;23.378;2022-12-10T08:49:08;16.40;;;6.47;;
20076;SDS011;12348;42.710;23.378;2022-12-10T08:51:34;15.87;;;6.57;;
20076;SDS011;12348;42.710;23.378;2022-12-10T08:54:02;14.03;;;6.53;;
20076;SDS011;12348;42.710;23.378;2022-12-10T08:56:30;12.53;;;5.67;;
20076;SDS011;12348;42.710;23.378;2022-12-10T08:58:57;14.20;;;6.60;;
20076;SDS011;12348;42.710;23.378;2022-12-10T09:01:24;15.30;;;7.77;;
20076;SDS011;12348;42.710;23.378;2022-12-10T09:03:51;14.37;;;8.33;;
20076;SDS011;12348;42.710;23.378;2022-12-10T09:06:20;12.27;;;7.57;;
20076;SDS011;12348;42.710;23.378;2022-12-10T09:08:49;14.30;;;7.27;;
20076;SDS011;12348;42.710;23.378;2022-12-10T09:11:17;12.10;;;6.40;;
20076;SDS011;12348;42.710;23.378;2022-12-10T09:13:46;16.60;;;7.40;;
20076;SDS011;12348;42.710;23.378;2022-12-10T09:16:13;17.00;;;7.40;;
20076;SDS011;12348;42.710;23.378;2022-12-10T09:18:40;14.10;;;6.40;;
20076;SDS011;12348;42.710;23.378;2022-12-10T09:21:07;13.53;;;7.30;;
20076;SDS011;12348;42.710;23.378;2022-12-10T09:23:35;7.77;;;5.57;;
20076;SDS011;12348;42.710;23.378;2022-12-10T09:26:04;7.10;;;5.03;;
20076;SDS011;12348;42.710;23.378;2022-12-10T09:28:32;10.40;;;5.20;;
20076;SDS011;12348;42.710;23.378;2022-12-10T09:31:00;9.43;;;4.73;;
20076;SDS011;12348;42.710;23.378;2022-12-10T09:33:28;16.80;;;5.33;;
20076;SDS011;12348;42.710;23.378;2022-12-10T09:35:55;11.13;;;5.20;;
20076;SDS011;12348;42.710;23.378;2022-12-10T09:38:22;8.23;;;5.20;;
20076;SDS011;12348;42.710;23.378;2022-12-10T09:40:51;9.23;;;5.77;;
20076;SDS011;12348;42.710;23.378;2022-12-10T09:43:28;13.83;;;5.27;;
20076;SDS011;12348;42.710;23.378;2022-12-10T09:46:10;9.73;;;5.67;;
20076;SDS011;12348;42.710;23.378;2022-12-10T09:48:47;14.30;;;7.53;;
20076;SDS011;12348;42.710;23.378;2022-12-10T09:51:26;14.17;;;6.27;;
20076;SDS011;12348;42.710;23.378;2022-12-10T09:53:56;9.63;;;6.00;;
20076;SDS011;12348;42.710;23.378;2022-12-10T09:56:26;7.70;;;4.80;;
20076;SDS011;12348;42.710;23.378;2022-12-10T09:58:55;10.17;;;5.60;;
20076;SDS011;12348;42.710;23.378;2022-12-10T10:01:27;10.73;;;4.60;;
20076;SDS011;12348;42.710;23.378;2022-12-10T10:03:55;9.07;;;4.00;;
20076;SDS011;12348;42.710;23.378;2022-12-10T10:06:23;8.50;;;3.57;;
20076;SDS011;12348;42.710;23.378;2022-12-10T10:08:54;7.73;;;3.33;;
20076;SDS011;12348;42.710;23.378;2022-12-10T10:11:27;7.23;;;3.53;;
20076;SDS011;12348;42.710;23.378;2022-12-10T10:13:57;7.13;;;3.47;;
20076;SDS011;12348;42.710;23.378;2022-12-10T10:16:28;6.43;;;3.40;;
20076;SDS011;12348;42.710;23.378;2022-12-10T10:19:01;9.37;;;2.73;;
20076;SDS011;12348;42.710;23.378;2022-12-10T10:21:30;6.10;;;3.70;;
20076;SDS011;12348;42.710;23.378;2022-12-10T10:24:00;5.67;;;3.70;;
20076;SDS011;12348;42.710;23.378;2022-12-10T10:26:27;7.83;;;3.43;;
20076;SDS011;12348;42.710;23.378;2022-12-10T10:28:55;25.53;;;11.70;;
20076;SDS011;12348;42.710;23.378;2022-12-10T10:31:25;29.40;;;16.83;;
20076;SDS011;12348;42.710;23.378;2022-12-10T10:33:56;14.90;;;7.73;;
20076;SDS011;12348;42.710;23.378;2022-12-10T10:36:25;8.47;;;3.83;;
20076;SDS011;12348;42.710;23.378;2022-12-10T10:38:54;17.30;;;9.03;;
20076;SDS011;12348;42.710;23.378;2022-12-10T10:41:23;20.10;;;8.83;;
20076;SDS011;12348;42.710;23.378;2022-12-10T10:43:51;8.87;;;4.63;;
20076;SDS011;12348;42.710;23.378;2022-12-10T10:46:25;22.23;;;7.60;;
20076;SDS011;12348;42.710;23.378;2022-12-10T10:49:11;10.60;;;5.57;;
20076;SDS011;12348;42.710;23.378;2022-12-10T10:51:47;9.17;;;4.17;;
20076;SDS011;12348;42.710;23.378;2022-12-10T10:54:30;8.50;;;5.43;;
20076;SDS011;12348;42.710;23.378;2022-12-10T10:57:00;9.00;;;5.70;;
20076;SDS011;12348;42.710;23.378;2022-12-10T10:59:30;7.20;;;3.90;;
20076;SDS011;12348;42.710;23.378;2022-12-10T11:02:01;5.10;;;3.60;;
20076;SDS011;12348;42.710;23.378;2022-12-10T11:04:36;11.80;;;5.60;;
20076;SDS011;12348;42.710;23.378;2022-12-10T11:07:12;6.00;;;3.70;;
20076;SDS011;12348;42.710;23.378;2022-12-10T11:09:45;10.53;;;5.17;;
20076;SDS011;12348;42.710;23.378;2022-12-10T11:12:21;18.23;;;9.77;;
20076;SDS011;12348;42.710;23.378;2022-12-10T11:14:54;21.10;;;9.97;;
20076;SDS011;12348;42.710;23.378;2022-12-10T11:17:23;12.33;;;5.20;;
20076;SDS011;12348;42.710;23.378;2022-12-10T11:19:56;7.30;;;4.30;;
20076;SDS011;12348;42.710;23.378;2022-12-10T11:22:26;10.60;;;5.20;;
20076;SDS011;12348;42.710;23.378;2022-12-10T11:24:54;9.63;;;5.13;;
20076;SDS011;12348;42.710;23.378;2022-12-10T11:27:27;19.07;;;9.07;;
20076;SDS011;12348;42.710;23.378;2022-12-10T11:30:09;10.30;;;4.20;;
20076;SDS011;12348;42.710;23.378;2022-12-10T11:32:48;6.43;;;4.03;;
20076;SDS011;12348;42.710;23.378;2022-12-10T11:35:27;10.93;;;5.27;;
20076;SDS011;12348;42.710;23.378;2022-12-10T11:38:05;10.07;;;3.30;;
20076;SDS011;12348;42.710;23.378;2022-12-10T11:40:44;4.43;;;3.17;;
20076;SDS011;12348;42.710;23.378;2022-12-10T11:43:21;34.90;;;18.30;;
20076;SDS011;12348;42.710;23.378;2022-12-10T11:46:14;35.60;;;19.00;;
20076;SDS011;12348;42.710;23.378;2022-12-10T11:49:09;16.90;;;8.23;;
20076;SDS011;12348;42.710;23.378;2022-12-10T11:51:49;7.27;;;4.03;;
20076;SDS011;12348;42.710;23.378;2022-12-10T11:54:34;36.97;;;17.80;;
20076;SDS011;12348;42.710;23.378;2022-12-10T11:57:13;15.67;;;8.13;;
20076;SDS011;12348;42.710;23.378;2022-12-10T11:59:49;12.73;;;7.00;;
20076;SDS011;12348;42.710;23.378;2022-12-10T12:02:31;12.37;;;6.53;;
20076;SDS011;12348;42.710;23.378;2022-12-10T12:05:19;10.87;;;4.23;;
20076;SDS011;12348;42.710;23.378;2022-12-10T12:07:56;17.43;;;8.73;;
20076;SDS011;12348;42.710;23.378;2022-12-10T12:13:35;13.57;;;6.33;;
20076;SDS011;12348;42.710;23.378;2022-12-10T12:16:09;15.80;;;7.50;;
20076;SDS011;12348;42.710;23.378;2022-12-10T12:18:41;7.00;;;3.73;;
20076;SDS011;12348;42.710;23.378;2022-12-10T12:21:15;14.33;;;5.67;;
20076;SDS011;12348;42.710;23.378;2022-12-10T12:23:45;14.87;;;5.30;;
20076;SDS011;12348;42.710;23.378;2022-12-10T12:26:18;7.10;;;4.53;;
20076;SDS011;12348;42.710;23.378;2022-12-10T12:28:51;9.77;;;5.03;;
20076;SDS011;12348;42.710;23.378;2022-12-10T12:31:24;12.70;;;6.00;;
20076;SDS011;12348;42.710;23.378;2022-12-10T12:33:57;7.23;;;4.50;;
20076;SDS011;12348;42.710;23.378;2022-12-10T12:36:29;10.80;;;4.83;;
20076;SDS011;12348;42.710;23.378;2022-12-10T12:39:00;7.87;;;4.33;;
20076;SDS011;12348;42.710;23.378;2022-12-10T12:41:34;14.63;;;6.67;;
20076;SDS011;12348;42.710;23.378;2022-12-10T12:44:09;16.13;;;7.20;;
20076;SDS011;12348;42.710;23.378;2022-12-10T12:46:42;10.67;;;6.47;;
20076;SDS011;12348;42.710;23.378;2022-12-10T12:49:13;8.53;;;4.40;;
20076;SDS011;12348;42.710;23.378;2022-12-10T12:51:50;9.87;;;4.57;;
20076;SDS011;12348;42.710;23.378;2022-12-10T12:54:20;13.40;;;4.87;;
20076;SDS011;12348;42.710;23.378;2022-12-10T12:56:53;10.33;;;4.57;;
20076;SDS011;12348;42.710;23.378;2022-12-10T12:59:31;11.63;;;4.87;;
20076;SDS011;12348;42.710;23.378;2022-12-10T13:02:13;8.33;;;4.27;;
20076;SDS011;12348;42.710;23.378;2022-12-10T13:04:46;7.30;;;3.77;;
20076;SDS011;12348;42.710;23.378;2022-12-10T13:07:28;10.07;;;4.30;;
20076;SDS011;12348;42.710;23.378;2022-12-10T13:10:09;10.70;;;4.83;;
20076;SDS011;12348;42.710;23.378;2022-12-10T13:12:48;7.10;;;4.23;;
20076;SDS011;12348;42.710;23.378;2022-12-10T13:15:18;7.13;;;4.37;;
20076;SDS011;12348;42.710;23.378;2022-12-10T13:20:46;8.10;;;4.33;;
20076;SDS011;12348;42.710;23.378;2022-12-10T13:23:33;7.47;;;4.50;;
20076;SDS011;12348;42.710;23.378;2022-12-10T13:26:22;9.77;;;3.60;;
20076;SDS011;12348;42.710;23.378;2022-12-10T13:28:51;8.00;;;4.50;;
20076;SDS011;12348;42.710;23.378;2022-12-10T13:34:23;8.43;;;4.40;;
20076;SDS011;12348;42.710;23.378;2022-12-10T13:37:17;6.90;;;3.67;;
20076;SDS011;12348;42.710;23.378;2022-12-10T13:40:01;8.97;;;3.53;;
20076;SDS011;12348;42.710;23.378;2022-12-10T13:42:39;10.30;;;4.53;;
20076;SDS011;12348;42.710;23.378;2022-12-10T13:45:28;7.73;;;3.77;;
20076;SDS011;12348;42.710;23.378;2022-12-10T13:48:16;10.87;;;4.30;;
20076;SDS011;12348;42.710;23.378;2022-12-10T13:54:07;9.33;;;4.07;;
20076;SDS011;12348;42.710;23.378;2022-12-10T13:56:53;9.70;;;4.07;;
20076;SDS011;12348;42.710;23.378;2022-12-10T13:59:30;9.03;;;3.93;;
20076;SDS011;12348;42.710;23.378;2022-12-10T14:05:12;7.93;;;4.70;;
20076;SDS011;12348;42.710;23.378;2022-12-10T14:07:50;7.20;;;4.57;;
20076;SDS011;12348;42.710;23.378;2022-12-10T14:10:24;11.67;;;4.93;;
20076;SDS011;12348;42.710;23.378;2022-12-10T14:12:55;7.57;;;3.97;;
20076;SDS011;12348;42.710;23.378;2022-12-10T14:15:22;8.33;;;3.50;;
20076;SDS011;12348;42.710;23.378;2022-12-10T14:17:59;8.40;;;4.17;;
20076;SDS011;12348;42.710;23.378;2022-12-10T14:20:29;10.37;;;4.60;;
20076;SDS011;12348;42.710;23.378;2022-12-10T14:23:02;23.80;;;10.53;;
20076;SDS011;12348;42.710;23.378;2022-12-10T14:25:48;21.40;;;6.47;;
20076;SDS011;12348;42.710;23.378;2022-12-10T14:28:18;13.77;;;5.80;;
20076;SDS011;12348;42.710;23.378;2022-12-10T14:30:46;10.57;;;6.00;;
20076;SDS011;12348;42.710;23.378;2022-12-10T14:33:15;13.77;;;6.70;;
20076;SDS011;12348;42.710;23.378;2022-12-10T14:35:46;13.03;;;6.77;;
20076;SDS011;12348;42.710;23.378;2022-12-10T14:38:16;17.23;;;8.73;;
20076;SDS011;12348;42.710;23.378;2022-12-10T14:40:46;28.07;;;13.50;;
20076;SDS011;12348;42.710;23.378;2022-12-10T14:43:15;24.77;;;8.80;;
20076;SDS011;12348;42.710;23.378;2022-12-10T14:45:47;12.20;;;7.20;;
20076;SDS011;12348;42.710;23.378;2022-12-10T14:48:22;15.70;;;8.17;;
20076;SDS011;12348;42.710;23.378;2022-12-10T14:50:49;18.10;;;9.03;;
20076;SDS011;12348;42.710;23.378;2022-12-10T14:53:17;19.73;;;8.87;;
20076;SDS011;12348;42.710;23.378;2022-12-10T14:55:45;18.00;;;10.10;;
20076;SDS011;12348;42.710;23.378;2022-12-10T14:58:17;22.43;;;10.13;;
20076;SDS011;12348;42.710;23.378;2022-12-10T15:00:49;21.53;;;9.03;;
20076;SDS011;12348;42.710;23.378;2022-12-10T15:03:21;25.47;;;9.10;;
20076;SDS011;12348;42.710;23.378;2022-12-10T15:05:53;26.27;;;10.47;;